Thunder radar more information blitzortung!


Radar de pluja more information rain snow radar


Visita la nostra xarxa de llocs de meteo:

Template documentation
and downloads

And another site



Wind From: 11-12-2017 11:00 Until: 14:59 warning for: Wind Level: Yellow info button

Pagina Historial Weather Underground text

Diari Resum May 31, 2017 Unitats:  Tant    Imperial   Mètric
« Previous Dia
SegĂźent Dia »
Diari Setmana Mensual Anual Personalitzada
  Maxima: Minima: Media:
Temperatura: 83.1 °F /  28.4 °C 60.3 °F /  15.7 °C 71.4 °F /  21.9 °C
Punt de rosada: 54.3 °F /  12.4 °C 47.5 °F /  8.6 °C 50.4 °F /  10.2 °C
Humitat: 66 % 35 % 49 %
Wind Speed: 12.8 mph /  20.6 km/h - 3.8 mph /  6.1 km/h
RĂ fegues de vent: 12.8 mph /  20.6 km/h - -
Vent:- - SE
Pression baro: 30.1 in /  1019.9 hPa 30 in /  1016.8 hPa -
Precipitacions: 0 in /  0.0 mm    
Historical Graphs
 
 
Dades de taula per May 31, 2017
Temps Temperatura Punt de rosada Pression baro Vent Wind Speed RĂ fegues de vent Humitat Rainfall Rate (Hourly)
00:04 64 °F /  17.8 °C 48.6 °F /  9.2 °C 30.1 in /  1017.8 hPa Calm     57 % 0 in /  0.0 mm
00:05 60.3 °F /  15.7 °C 48.4 °F /  9.1 °C 30.1 in /  1017.8 hPa Calm   2 mph /  3.2 km/h 65 % 0 in /  0.0 mm
00:15 60.3 °F /  15.7 °C 48.4 °F /  9.1 °C 30.1 in /  1017.8 hPa West 1 mph /  1.6 km/h 2 mph /  3.2 km/h 65 % 0 in /  0.0 mm
00:25 60.6 °F /  15.9 °C 48.7 °F /  9.3 °C 30.1 in /  1017.8 hPa WSW 2 mph /  3.2 km/h 3 mph /  4.8 km/h 65 % 0 in /  0.0 mm
00:35 60.6 °F /  15.9 °C 48.7 °F /  9.3 °C 30.1 in /  1017.8 hPa WSW 1 mph /  1.6 km/h 2 mph /  3.2 km/h 65 % 0 in /  0.0 mm
00:45 60.6 °F /  15.9 °C 48.7 °F /  9.3 °C 30.1 in /  1017.8 hPa Calm   3 mph /  4.8 km/h 65 % 0 in /  0.0 mm
00:55 60.4 °F /  15.8 °C 48.6 °F /  9.2 °C 30 in /  1016.8 hPa West 1 mph /  1.6 km/h 2 mph /  3.2 km/h 65 % 0 in /  0.0 mm
01:05 60.6 °F /  15.9 °C 48.7 °F /  9.3 °C 30.1 in /  1017.8 hPa WSW 1 mph /  1.6 km/h 3 mph /  4.8 km/h 65 % 0 in /  0.0 mm
01:15 60.4 °F /  15.8 °C 48.6 °F /  9.2 °C 30.1 in /  1017.8 hPa SW 1 mph /  1.6 km/h 2 mph /  3.2 km/h 65 % 0 in /  0.0 mm
01:25 60.4 °F /  15.8 °C 48.6 °F /  9.2 °C 30.1 in /  1017.8 hPa SW 1 mph /  1.6 km/h 2 mph /  3.2 km/h 65 % 0 in /  0.0 mm
01:35 60.4 °F /  15.8 °C 48.6 °F /  9.2 °C 30.1 in /  1017.8 hPa Calm   2 mph /  3.2 km/h 65 % 0 in /  0.0 mm
01:45 60.4 °F /  15.8 °C 48.6 °F /  9.2 °C 30.1 in /  1017.8 hPa Calm   1 mph /  1.6 km/h 65 % 0 in /  0.0 mm
01:55 60.8 °F /  16.0 °C 49.5 °F /  9.7 °C 30.1 in /  1017.8 hPa Calm     66 % 0 in /  0.0 mm
02:05 61.2 °F /  16.2 °C 49.6 °F /  9.8 °C 30.1 in /  1017.8 hPa Calm   2 mph /  3.2 km/h 66 % 0 in /  0.0 mm
02:15 61.2 °F /  16.2 °C 49.6 °F /  9.8 °C 30.1 in /  1017.8 hPa North 1 mph /  1.6 km/h 2 mph /  3.2 km/h 66 % 0 in /  0.0 mm
02:25 60.8 °F /  16.0 °C 49.5 °F /  9.7 °C 30.1 in /  1018.8 hPa Calm   2 mph /  3.2 km/h 66 % 0 in /  0.0 mm
02:35 61 °F /  16.1 °C 49.5 °F /  9.7 °C 30.1 in /  1018.8 hPa WSW 1 mph /  1.6 km/h 2 mph /  3.2 km/h 66 % 0 in /  0.0 mm
02:45 61.2 °F /  16.2 °C 49.6 °F /  9.8 °C 30.1 in /  1018.8 hPa WSW 1 mph /  1.6 km/h 1 mph /  1.6 km/h 66 % 0 in /  0.0 mm
02:55 61.3 °F /  16.3 °C 49.8 °F /  9.9 °C 30.1 in /  1018.8 hPa Calm     66 % 0 in /  0.0 mm
03:05 61.5 °F /  16.4 °C 49.6 °F /  9.8 °C 30.1 in /  1018.8 hPa Calm   1 mph /  1.6 km/h 65 % 0 in /  0.0 mm
03:15 62.1 °F /  16.7 °C 50.5 °F /  10.3 °C 30.1 in /  1018.8 hPa Calm   1 mph /  1.6 km/h 66 % 0 in /  0.0 mm
03:25 62.8 °F /  17.1 °C 50.7 °F /  10.4 °C 30.1 in /  1018.8 hPa Calm     65 % 0 in /  0.0 mm
03:35 63.9 °F /  17.7 °C 51.4 °F /  10.8 °C 30.1 in /  1018.8 hPa North 1 mph /  1.6 km/h 2 mph /  3.2 km/h 64 % 0 in /  0.0 mm
03:45 65.1 °F /  18.4 °C 52.2 °F /  11.2 °C 30.1 in /  1018.8 hPa NE 1 mph /  1.6 km/h 2 mph /  3.2 km/h 63 % 0 in /  0.0 mm
03:55 64.9 °F /  18.3 °C 52 °F /  11.1 °C 30.1 in /  1018.8 hPa NE 3 mph /  4.8 km/h 4 mph /  6.4 km/h 63 % 0 in /  0.0 mm
04:05 65.8 °F /  18.8 °C 52.9 °F /  11.6 °C 30.1 in /  1018.8 hPa NNE 1 mph /  1.6 km/h 3 mph /  4.8 km/h 63 % 0 in /  0.0 mm
04:15 66.9 °F /  19.4 °C 52.5 °F /  11.4 °C 30.1 in /  1018.8 hPa NNE 2 mph /  3.2 km/h 2 mph /  3.2 km/h 60 % 0 in /  0.0 mm
04:25 67.1 °F /  19.5 °C 52.7 °F /  11.5 °C 30.1 in /  1018.8 hPa ENE 1 mph /  1.6 km/h 3 mph /  4.8 km/h 60 % 0 in /  0.0 mm
04:35 67.5 °F /  19.7 °C 52.5 °F /  11.4 °C 30.1 in /  1018.8 hPa ENE 2 mph /  3.2 km/h 4 mph /  6.4 km/h 59 % 0 in /  0.0 mm
04:45 67.8 °F /  19.9 °C 53.1 °F /  11.7 °C 30.1 in /  1018.8 hPa NE 2 mph /  3.2 km/h 4 mph /  6.4 km/h 59 % 0 in /  0.0 mm
04:55 69.3 °F /  20.7 °C 53.8 °F /  12.1 °C 30.1 in /  1018.8 hPa NE 1 mph /  1.6 km/h 3 mph /  4.8 km/h 58 % 0 in /  0.0 mm
05:05 68.7 °F /  20.4 °C 53.2 °F /  11.8 °C 30.1 in /  1018.8 hPa NE 3 mph /  4.8 km/h 4 mph /  6.4 km/h 58 % 0 in /  0.0 mm
05:15 68.4 °F /  20.2 °C 53.1 °F /  11.7 °C 30.1 in /  1018.8 hPa NE 1 mph /  1.6 km/h 7 mph /  11.3 km/h 58 % 0 in /  0.0 mm
05:25 68.5 °F /  20.3 °C 53.2 °F /  11.8 °C 30.1 in /  1018.8 hPa NE 3 mph /  4.8 km/h 4 mph /  6.4 km/h 58 % 0 in /  0.0 mm
05:35 69.1 °F /  20.6 °C 53.8 °F /  12.1 °C 30.1 in /  1019.9 hPa NE 2 mph /  3.2 km/h 6 mph /  9.7 km/h 58 % 0 in /  0.0 mm
05:40 69.3 °F /  20.7 °C 53.4 °F /  11.9 °C 30.1 in /  1019.9 hPa NNE 3 mph /  4.8 km/h 3 mph /  4.8 km/h 57 % 0 in /  0.0 mm
10:42 69.4 °F /  20.8 °C 53.4 °F /  11.9 °C 30.1 in /  1019.9 hPa NE 4 mph /  6.4 km/h 4 mph /  6.4 km/h 57 % 0 in /  0.0 mm
10:43 69.4 °F /  20.8 °C 53.4 °F /  11.9 °C 30.1 in /  1019.9 hPa NE 4.6 mph /  7.4 km/h 4.6 mph /  7.4 km/h 57 % 0 in /  0.0 mm
10:48 70 °F /  21.1 °C 54 °F /  12.2 °C 30.1 in /  1019.9 hPa NE 4.6 mph /  7.4 km/h 4.6 mph /  7.4 km/h 57 % 0 in /  0.0 mm
10:53 70.2 °F /  21.2 °C 53.8 °F /  12.1 °C 30.1 in /  1018.8 hPa North 5.8 mph /  9.3 km/h 5.8 mph /  9.3 km/h 56 % 0 in /  0.0 mm
10:58 70.5 °F /  21.4 °C 54.1 °F /  12.3 °C 30.1 in /  1018.8 hPa NNE 4.6 mph /  7.4 km/h 4.6 mph /  7.4 km/h 56 % 0 in /  0.0 mm
11:03 71.1 °F /  21.7 °C 54.1 °F /  12.3 °C 30.1 in /  1018.8 hPa North 3.5 mph /  5.6 km/h 3.5 mph /  5.6 km/h 55 % 0 in /  0.0 mm
11:08 72 °F /  22.2 °C 54.3 °F /  12.4 °C 30.1 in /  1018.8 hPa ENE 2.3 mph /  3.7 km/h 2.3 mph /  3.7 km/h 54 % 0 in /  0.0 mm
11:13 72.1 °F /  22.3 °C 53.4 °F /  11.9 °C 30.1 in /  1018.8 hPa ENE 3.5 mph /  5.6 km/h 3.5 mph /  5.6 km/h 52 % 0 in /  0.0 mm
11:18 72.9 °F /  22.7 °C 53.8 °F /  12.1 °C 30.1 in /  1018.8 hPa ENE 3.5 mph /  5.6 km/h 3.5 mph /  5.6 km/h 51 % 0 in /  0.0 mm
11:23 72.9 °F /  22.7 °C 53.1 °F /  11.7 °C 30.1 in /  1018.8 hPa ESE 2.4 mph /  3.9 km/h 2.4 mph /  3.9 km/h 50 % 0 in /  0.0 mm
11:28 74.1 °F /  23.4 °C 53.2 °F /  11.8 °C 30.1 in /  1018.8 hPa SE 2.3 mph /  3.7 km/h 2.3 mph /  3.7 km/h 48 % 0 in /  0.0 mm
11:33 74.5 °F /  23.6 °C 53.4 °F /  11.9 °C 30.1 in /  1018.8 hPa NNE 4.6 mph /  7.4 km/h 4.6 mph /  7.4 km/h 48 % 0 in /  0.0 mm
11:38 74.5 °F /  23.6 °C 53.4 °F /  11.9 °C 30.1 in /  1018.8 hPa ENE 4.9 mph /  7.9 km/h 4.9 mph /  7.9 km/h 48 % 0 in /  0.0 mm
11:43 75.2 °F /  24.0 °C 54.1 °F /  12.3 °C 30.1 in /  1018.8 hPa North 4.6 mph /  7.4 km/h 4.6 mph /  7.4 km/h 48 % 0 in /  0.0 mm
11:48 75 °F /  23.9 °C 53.4 °F /  11.9 °C 30.1 in /  1018.8 hPa NE 5.8 mph /  9.3 km/h 5.8 mph /  9.3 km/h 47 % 0 in /  0.0 mm
11:53 74.7 °F /  23.7 °C 53.1 °F /  11.7 °C 30.1 in /  1018.8 hPa ENE 4 mph /  6.4 km/h 4 mph /  6.4 km/h 47 % 0 in /  0.0 mm
11:58 74.8 °F /  23.8 °C 53.2 °F /  11.8 °C 30.1 in /  1018.8 hPa NE 5.8 mph /  9.3 km/h 5.8 mph /  9.3 km/h 47 % 0 in /  0.0 mm
12:03 74.7 °F /  23.7 °C 52.5 °F /  11.4 °C 30.1 in /  1018.8 hPa NNE 4.6 mph /  7.4 km/h 4.6 mph /  7.4 km/h 46 % 0 in /  0.0 mm
12:08 75.4 °F /  24.1 °C 53.2 °F /  11.8 °C 30.1 in /  1018.8 hPa ENE 4.6 mph /  7.4 km/h 4.6 mph /  7.4 km/h 46 % 0 in /  0.0 mm
12:13 75 °F /  23.9 °C 52.9 °F /  11.6 °C 30.1 in /  1018.8 hPa ENE 4.6 mph /  7.4 km/h 4.6 mph /  7.4 km/h 46 % 0 in /  0.0 mm
12:18 75.9 °F /  24.4 °C 53.6 °F /  12.0 °C 30.1 in /  1018.8 hPa ESE 3.5 mph /  5.6 km/h 3.5 mph /  5.6 km/h 46 % 0 in /  0.0 mm
12:23 76.1 °F /  24.5 °C 53.2 °F /  11.8 °C 30.1 in /  1018.8 hPa SSE 3.5 mph /  5.6 km/h 3.5 mph /  5.6 km/h 45 % 0 in /  0.0 mm
12:28 76.5 °F /  24.7 °C 53.4 °F /  11.9 °C 30.1 in /  1018.8 hPa NE 4.3 mph /  6.9 km/h 4.3 mph /  6.9 km/h 45 % 0 in /  0.0 mm
12:33 76.3 °F /  24.6 °C 53.4 °F /  11.9 °C 30.1 in /  1018.8 hPa NE 4.6 mph /  7.4 km/h 4.6 mph /  7.4 km/h 45 % 0 in /  0.0 mm
12:38 76.1 °F /  24.5 °C 52.5 °F /  11.4 °C 30.1 in /  1018.8 hPa NW 4.6 mph /  7.4 km/h 4.6 mph /  7.4 km/h 44 % 0 in /  0.0 mm
12:43 77.2 °F /  25.1 °C 53.6 °F /  12.0 °C 30.1 in /  1018.8 hPa SW 2.3 mph /  3.7 km/h 2.3 mph /  3.7 km/h 44 % 0 in /  0.0 mm
12:48 78.1 °F /  25.6 °C 54.3 °F /  12.4 °C 30.1 in /  1018.8 hPa ENE 2.3 mph /  3.7 km/h 2.3 mph /  3.7 km/h 44 % 0 in /  0.0 mm
12:53 78.1 °F /  25.6 °C 53.1 °F /  11.7 °C 30.1 in /  1018.8 hPa SSE 3.5 mph /  5.6 km/h 3.5 mph /  5.6 km/h 42 % 0 in /  0.0 mm
12:58 78.3 °F /  25.7 °C 53.2 °F /  11.8 °C 30.1 in /  1018.8 hPa ENE 2.3 mph /  3.7 km/h 2.3 mph /  3.7 km/h 42 % 0 in /  0.0 mm
13:03 78.8 °F /  26.0 °C 54.3 °F /  12.4 °C 30.1 in /  1018.8 hPa East 1.2 mph /  1.9 km/h 1.2 mph /  1.9 km/h 43 % 0 in /  0.0 mm
13:08 78.6 °F /  25.9 °C 53.6 °F /  12.0 °C 30.1 in /  1017.8 hPa East 2.3 mph /  3.7 km/h 2.6 mph /  4.2 km/h 42 % 0 in /  0.0 mm
13:13 78.6 °F /  25.9 °C 53.6 °F /  12.0 °C 30.1 in /  1017.8 hPa NE 4.6 mph /  7.4 km/h 4.6 mph /  7.4 km/h 42 % 0 in /  0.0 mm
13:18 78.6 °F /  25.9 °C 52.9 °F /  11.6 °C 30.1 in /  1017.8 hPa NE 4.6 mph /  7.4 km/h 4.6 mph /  7.4 km/h 41 % 0 in /  0.0 mm
13:23 78.4 °F /  25.8 °C 52.9 °F /  11.6 °C 30.1 in /  1017.8 hPa East 3.1 mph /  5.0 km/h 3.1 mph /  5.0 km/h 41 % 0 in /  0.0 mm
13:28 78.8 °F /  26.0 °C 53.1 °F /  11.7 °C 30.1 in /  1017.8 hPa NE 2.9 mph /  4.7 km/h 2.9 mph /  4.7 km/h 41 % 0 in /  0.0 mm
13:33 79.2 °F /  26.2 °C 52.9 °F /  11.6 °C 30.1 in /  1017.8 hPa NNW 5.8 mph /  9.3 km/h 5.8 mph /  9.3 km/h 40 % 0 in /  0.0 mm
13:38 78.4 °F /  25.8 °C 51.4 °F /  10.8 °C 30.1 in /  1017.8 hPa NE 8.1 mph /  13.0 km/h 8.1 mph /  13.0 km/h 39 % 0 in /  0.0 mm
13:43 79.3 °F /  26.3 °C 52.9 °F /  11.6 °C 30.1 in /  1017.8 hPa West 5.9 mph /  9.5 km/h 5.9 mph /  9.5 km/h 40 % 0 in /  0.0 mm
13:48 78.8 °F /  26.0 °C 51.6 °F /  10.9 °C 30.1 in /  1017.8 hPa SW 5.8 mph /  9.3 km/h 5.8 mph /  9.3 km/h 39 % 0 in /  0.0 mm
13:53 79.3 °F /  26.3 °C 52.2 °F /  11.2 °C 30.1 in /  1017.8 hPa ENE 5.4 mph /  8.7 km/h 5.4 mph /  8.7 km/h 39 % 0 in /  0.0 mm
13:56 79 °F /  26.1 °C 52 °F /  11.1 °C 30.1 in /  1017.8 hPa NE 4.6 mph /  7.4 km/h 4.6 mph /  7.4 km/h 39 % 0 in /  0.0 mm
14:01 78.8 °F /  26.0 °C 51.1 °F /  10.6 °C 30.1 in /  1017.8 hPa SSE 6 mph /  9.7 km/h 6 mph /  9.7 km/h 38 % 0 in /  0.0 mm
14:06 78.6 °F /  25.9 °C 51.6 °F /  10.9 °C 30.1 in /  1017.8 hPa SW 3.6 mph /  5.8 km/h 3.6 mph /  5.8 km/h 39 % 0 in /  0.0 mm
14:11 79.2 °F /  26.2 °C 50.5 °F /  10.3 °C 30.1 in /  1017.8 hPa ESE 6.9 mph /  11.1 km/h 6.9 mph /  11.1 km/h 37 % 0 in /  0.0 mm
14:16 78.6 °F /  25.9 °C 50.2 °F /  10.1 °C 30.1 in /  1017.8 hPa ESE 4.6 mph /  7.4 km/h 4.6 mph /  7.4 km/h 37 % 0 in /  0.0 mm
14:21 79 °F /  26.1 °C 50.5 °F /  10.3 °C 30 in /  1016.8 hPa ESE 6.9 mph /  11.1 km/h 6.9 mph /  11.1 km/h 37 % 0 in /  0.0 mm
14:26 79.3 °F /  26.3 °C 51.4 °F /  10.8 °C 30 in /  1016.8 hPa ESE 4.6 mph /  7.4 km/h 4.6 mph /  7.4 km/h 38 % 0 in /  0.0 mm
14:31 79.3 °F /  26.3 °C 51.4 °F /  10.8 °C 30 in /  1016.8 hPa WNW 2.6 mph /  4.2 km/h 2.6 mph /  4.2 km/h 38 % 0 in /  0.0 mm
14:36 80.1 °F /  26.7 °C 51.4 °F /  10.8 °C 30 in /  1016.8 hPa East 5.8 mph /  9.3 km/h 5.8 mph /  9.3 km/h 37 % 0 in /  0.0 mm
14:41 80.6 °F /  27.0 °C 52 °F /  11.1 °C 30 in /  1016.8 hPa WSW 2 mph /  3.2 km/h 2 mph /  3.2 km/h 37 % 0 in /  0.0 mm
14:46 81 °F /  27.2 °C 52.2 °F /  11.2 °C 30 in /  1016.8 hPa NNE 5.8 mph /  9.3 km/h 5.8 mph /  9.3 km/h 37 % 0 in /  0.0 mm
14:51 80.4 °F /  26.9 °C 51.8 °F /  11.0 °C 30.1 in /  1017.8 hPa East 2.9 mph /  4.7 km/h 2.9 mph /  4.7 km/h 37 % 0 in /  0.0 mm
14:56 81.3 °F /  27.4 °C 52.5 °F /  11.4 °C 30.1 in /  1017.8 hPa SSE 5.9 mph /  9.5 km/h 5.9 mph /  9.5 km/h 37 % 0 in /  0.0 mm
15:01 81.5 °F /  27.5 °C 52.7 °F /  11.5 °C 30.1 in /  1017.8 hPa SSW 4.6 mph /  7.4 km/h 4.6 mph /  7.4 km/h 37 % 0 in /  0.0 mm
15:06 81.7 °F /  27.6 °C 52.9 °F /  11.6 °C 30.1 in /  1017.8 hPa SSW 4.6 mph /  7.4 km/h 4.6 mph /  7.4 km/h 37 % 0 in /  0.0 mm
15:11 83.1 °F /  28.4 °C 54.1 °F /  12.3 °C 30.1 in /  1017.8 hPa SW 3.6 mph /  5.8 km/h 3.6 mph /  5.8 km/h 37 % 0 in /  0.0 mm
15:16 82.9 °F /  28.3 °C 53.2 °F /  11.8 °C 30.1 in /  1017.8 hPa East 5.8 mph /  9.3 km/h 5.8 mph /  9.3 km/h 36 % 0 in /  0.0 mm
15:21 81.9 °F /  27.7 °C 52.3 °F /  11.3 °C 30.1 in /  1017.8 hPa ENE 5.8 mph /  9.3 km/h 5.8 mph /  9.3 km/h 36 % 0 in /  0.0 mm
15:26 80.8 °F /  27.1 °C 51.3 °F /  10.7 °C 30.1 in /  1017.8 hPa SSE 6.9 mph /  11.1 km/h 8.1 mph /  13.0 km/h 36 % 0 in /  0.0 mm
15:31 81 °F /  27.2 °C 51.4 °F /  10.8 °C 30.1 in /  1017.8 hPa East 4.6 mph /  7.4 km/h 4.6 mph /  7.4 km/h 36 % 0 in /  0.0 mm
15:36 80.2 °F /  26.8 °C 52.3 °F /  11.3 °C 30.1 in /  1017.8 hPa SW 4.6 mph /  7.4 km/h 4.6 mph /  7.4 km/h 38 % 0 in /  0.0 mm
15:41 80.4 °F /  26.9 °C 51.8 °F /  11.0 °C 30.1 in /  1017.8 hPa SE 12.7 mph /  20.4 km/h 12.7 mph /  20.4 km/h 37 % 0 in /  0.0 mm
15:46 79.9 °F /  26.6 °C 51.3 °F /  10.7 °C 30.1 in /  1017.8 hPa ESE 8.1 mph /  13.0 km/h 8.1 mph /  13.0 km/h 37 % 0 in /  0.0 mm
15:51 79.5 °F /  26.4 °C 51.1 °F /  10.6 °C 30 in /  1016.8 hPa SSW 6.9 mph /  11.1 km/h 6.9 mph /  11.1 km/h 37 % 0 in /  0.0 mm
15:56 79.5 °F /  26.4 °C 51.1 °F /  10.6 °C 30 in /  1016.8 hPa ENE 6.9 mph /  11.1 km/h 6.9 mph /  11.1 km/h 37 % 0 in /  0.0 mm
16:01 80.1 °F /  26.7 °C 51.4 °F /  10.8 °C 30 in /  1016.8 hPa SSE 4.6 mph /  7.4 km/h 4.6 mph /  7.4 km/h 37 % 0 in /  0.0 mm
16:06 80.2 °F /  26.8 °C 51.6 °F /  10.9 °C 30.1 in /  1017.8 hPa SE 9.2 mph /  14.8 km/h 9.2 mph /  14.8 km/h 37 % 0 in /  0.0 mm
16:11 81.5 °F /  27.5 °C 52.7 °F /  11.5 °C 30.1 in /  1017.8 hPa South 5.4 mph /  8.7 km/h 5.4 mph /  8.7 km/h 37 % 0 in /  0.0 mm
16:16 82.2 °F /  27.9 °C 53.4 °F /  11.9 °C 30.1 in /  1017.8 hPa SSW 5.8 mph /  9.3 km/h 5.8 mph /  9.3 km/h 37 % 0 in /  0.0 mm
16:21 83.1 °F /  28.4 °C 53.4 °F /  11.9 °C 30.1 in /  1017.8 hPa South 5.8 mph /  9.3 km/h 5.8 mph /  9.3 km/h 36 % 0 in /  0.0 mm
16:26 80.4 °F /  26.9 °C 51.8 °F /  11.0 °C 30.1 in /  1017.8 hPa NE 5.8 mph /  9.3 km/h 5.8 mph /  9.3 km/h 37 % 0 in /  0.0 mm
16:31 80.4 °F /  26.9 °C 51.1 °F /  10.6 °C 30.1 in /  1017.8 hPa SSE 6 mph /  9.7 km/h 6 mph /  9.7 km/h 36 % 0 in /  0.0 mm
16:36 80.2 °F /  26.8 °C 51.6 °F /  10.9 °C 30.1 in /  1017.8 hPa ESE 4.9 mph /  7.9 km/h 4.9 mph /  7.9 km/h 37 % 0 in /  0.0 mm
16:41 79.7 °F /  26.5 °C 50.4 °F /  10.2 °C 30.1 in /  1017.8 hPa ENE 12.1 mph /  19.5 km/h 12.1 mph /  19.5 km/h 36 % 0 in /  0.0 mm
16:46 79.3 °F /  26.3 °C 50.2 °F /  10.1 °C 30.1 in /  1017.8 hPa SE 6.9 mph /  11.1 km/h 6.9 mph /  11.1 km/h 36 % 0 in /  0.0 mm
16:51 78.6 °F /  25.9 °C 49.5 °F /  9.7 °C 30.1 in /  1017.8 hPa East 8.1 mph /  13.0 km/h 8.1 mph /  13.0 km/h 36 % 0 in /  0.0 mm
16:56 78.4 °F /  25.8 °C 49.3 °F /  9.6 °C 30.1 in /  1017.8 hPa ESE 8.1 mph /  13.0 km/h 8.1 mph /  13.0 km/h 36 % 0 in /  0.0 mm
17:01 77.7 °F /  25.4 °C 47.8 °F /  8.8 °C 30.1 in /  1017.8 hPa East 9.2 mph /  14.8 km/h 9.2 mph /  14.8 km/h 35 % 0 in /  0.0 mm
17:06 77.5 °F /  25.3 °C 47.7 °F /  8.7 °C 30 in /  1016.8 hPa East 8.1 mph /  13.0 km/h 8.1 mph /  13.0 km/h 35 % 0 in /  0.0 mm
17:11 78.1 °F /  25.6 °C 48.2 °F /  9.0 °C 30 in /  1016.8 hPa ESE 9.2 mph /  14.8 km/h 9.2 mph /  14.8 km/h 35 % 0 in /  0.0 mm
17:16 78.1 °F /  25.6 °C 48.2 °F /  9.0 °C 30 in /  1016.8 hPa ENE 8.1 mph /  13.0 km/h 8.1 mph /  13.0 km/h 35 % 0 in /  0.0 mm
17:21 77.7 °F /  25.4 °C 47.8 °F /  8.8 °C 30.1 in /  1017.8 hPa East 10.4 mph /  16.7 km/h 10.4 mph /  16.7 km/h 35 % 0 in /  0.0 mm
17:26 77.2 °F /  25.1 °C 47.5 °F /  8.6 °C 30.1 in /  1017.8 hPa ESE 10.4 mph /  16.7 km/h 10.4 mph /  16.7 km/h 35 % 0 in /  0.0 mm
17:31 76.8 °F /  24.9 °C 47.8 °F /  8.8 °C 30.1 in /  1017.8 hPa East 10.4 mph /  16.7 km/h 10.4 mph /  16.7 km/h 36 % 0 in /  0.0 mm
17:36 76.8 °F /  24.9 °C 47.8 °F /  8.8 °C 30.1 in /  1017.8 hPa ESE 11.5 mph /  18.5 km/h 11.5 mph /  18.5 km/h 36 % 0 in /  0.0 mm
17:37 76.8 °F /  24.9 °C 48.6 °F /  9.2 °C 30.1 in /  1017.8 hPa ESE 9.2 mph /  14.8 km/h 9.2 mph /  14.8 km/h 37 % 0 in /  0.0 mm
17:42 76.5 °F /  24.7 °C 48.2 °F /  9.0 °C 30.1 in /  1017.8 hPa ENE 9.2 mph /  14.8 km/h 9.2 mph /  14.8 km/h 37 % 0 in /  0.0 mm
17:47 76.1 °F /  24.5 °C 47.8 °F /  8.8 °C 30.1 in /  1017.8 hPa SSE 11.5 mph /  18.5 km/h 11.5 mph /  18.5 km/h 37 % 0 in /  0.0 mm
17:52 76.5 °F /  24.7 °C 48.2 °F /  9.0 °C 30 in /  1016.8 hPa SE 10.7 mph /  17.2 km/h 10.7 mph /  17.2 km/h 37 % 0 in /  0.0 mm
17:57 76.1 °F /  24.5 °C 47.8 °F /  8.8 °C 30 in /  1016.8 hPa SE 8.1 mph /  13.0 km/h 8.1 mph /  13.0 km/h 37 % 0 in /  0.0 mm
18:02 76.1 °F /  24.5 °C 47.8 °F /  8.8 °C 30 in /  1016.8 hPa ESE 8.7 mph /  14.0 km/h 8.7 mph /  14.0 km/h 37 % 0 in /  0.0 mm
18:07 75.7 °F /  24.3 °C 47.7 °F /  8.7 °C 30.1 in /  1017.8 hPa ESE 10.4 mph /  16.7 km/h 10.4 mph /  16.7 km/h 37 % 0 in /  0.0 mm
18:12 75.4 °F /  24.1 °C 48 °F /  8.9 °C 30.1 in /  1017.8 hPa ESE 9.4 mph /  15.1 km/h 9.4 mph /  15.1 km/h 38 % 0 in /  0.0 mm
18:17 75.6 °F /  24.2 °C 47.5 °F /  8.6 °C 30.1 in /  1017.8 hPa South 10.5 mph /  16.9 km/h 10.5 mph /  16.9 km/h 37 % 0 in /  0.0 mm
18:22 75.6 °F /  24.2 °C 47.5 °F /  8.6 °C 30 in /  1016.8 hPa SE 10.4 mph /  16.7 km/h 10.4 mph /  16.7 km/h 37 % 0 in /  0.0 mm
18:27 75.4 °F /  24.1 °C 48 °F /  8.9 °C 30 in /  1016.8 hPa East 8.1 mph /  13.0 km/h 8.1 mph /  13.0 km/h 38 % 0 in /  0.0 mm
18:32 75.2 °F /  24.0 °C 47.8 °F /  8.8 °C 30 in /  1016.8 hPa ESE 8.7 mph /  14.0 km/h 8.7 mph /  14.0 km/h 38 % 0 in /  0.0 mm
18:37 75.6 °F /  24.2 °C 48.2 °F /  9.0 °C 30 in /  1016.8 hPa ESE 12.8 mph /  20.6 km/h 12.8 mph /  20.6 km/h 38 % 0 in /  0.0 mm
18:42 75.2 °F /  24.0 °C 47.8 °F /  8.8 °C 30 in /  1016.8 hPa ESE 10.4 mph /  16.7 km/h 10.4 mph /  16.7 km/h 38 % 0 in /  0.0 mm
18:47 75.2 °F /  24.0 °C 47.8 °F /  8.8 °C 30 in /  1016.8 hPa ESE 8.1 mph /  13.0 km/h 8.1 mph /  13.0 km/h 38 % 0 in /  0.0 mm
18:52 75.6 °F /  24.2 °C 48.2 °F /  9.0 °C 30 in /  1016.8 hPa ESE 8.1 mph /  13.0 km/h 8.1 mph /  13.0 km/h 38 % 0 in /  0.0 mm
18:57 75 °F /  23.9 °C 48.4 °F /  9.1 °C 30 in /  1016.8 hPa SSE 8.7 mph /  14.0 km/h 8.7 mph /  14.0 km/h 39 % 0 in /  0.0 mm
19:02 74.8 °F /  23.8 °C 48.2 °F /  9.0 °C 30 in /  1016.8 hPa East 8.1 mph /  13.0 km/h 8.1 mph /  13.0 km/h 39 % 0 in /  0.0 mm
19:07 75 °F /  23.9 °C 48.4 °F /  9.1 °C 30 in /  1016.8 hPa East 6.9 mph /  11.1 km/h 6.9 mph /  11.1 km/h 39 % 0 in /  0.0 mm
19:12 74.8 °F /  23.8 °C 48.2 °F /  9.0 °C 30 in /  1016.8 hPa SE 9.2 mph /  14.8 km/h 9.2 mph /  14.8 km/h 39 % 0 in /  0.0 mm
19:15 65.8 °F /  18.8 °C 50.2 °F /  10.1 °C 30.1 in /  1019.9 hPa Calm   1 mph /  1.6 km/h 57 % 0 in /  0.0 mm
19:17 74.8 °F /  23.8 °C 48.2 °F /  9.0 °C 30 in /  1016.8 hPa ESE 6.9 mph /  11.1 km/h 6.9 mph /  11.1 km/h 39 % 0 in /  0.0 mm
19:22 74.7 °F /  23.7 °C 48 °F /  8.9 °C 30 in /  1016.8 hPa SSE 5.9 mph /  9.5 km/h 5.9 mph /  9.5 km/h 39 % 0 in /  0.0 mm
19:25 65.7 °F /  18.7 °C 50 °F /  10.0 °C 30.1 in /  1018.8 hPa Calm   1 mph /  1.6 km/h 57 % 0 in /  0.0 mm
19:27 74.5 °F /  23.6 °C 47.8 °F /  8.8 °C 30 in /  1016.8 hPa East 5.9 mph /  9.5 km/h 5.9 mph /  9.5 km/h 39 % 0 in /  0.0 mm
19:32 74.5 °F /  23.6 °C 47.8 °F /  8.8 °C 30 in /  1016.8 hPa SSE 9.8 mph /  15.8 km/h 9.8 mph /  15.8 km/h 39 % 0 in /  0.0 mm
19:35 65.1 °F /  18.4 °C 49.5 °F /  9.7 °C 30.1 in /  1018.8 hPa Calm     57 % 0 in /  0.0 mm
19:37 73.9 °F /  23.3 °C 47.5 °F /  8.6 °C 30 in /  1016.8 hPa ESE 5.8 mph /  9.3 km/h 5.8 mph /  9.3 km/h 39 % 0 in /  0.0 mm
19:42 73.8 °F /  23.2 °C 47.8 °F /  8.8 °C 30 in /  1016.8 hPa ESE 6.9 mph /  11.1 km/h 6.9 mph /  11.1 km/h 40 % 0 in /  0.0 mm
19:45 64.4 °F /  18.0 °C 48.7 °F /  9.3 °C 30.1 in /  1018.8 hPa WNW 1 mph /  1.6 km/h 2 mph /  3.2 km/h 57 % 0 in /  0.0 mm
19:46 73.8 °F /  23.2 °C 47.8 °F /  8.8 °C 30 in /  1016.8 hPa East 6.9 mph /  11.1 km/h 6.9 mph /  11.1 km/h 40 % 0 in /  0.0 mm
19:51 73.9 °F /  23.3 °C 48 °F /  8.9 °C 30.1 in /  1017.8 hPa SSW 3.5 mph /  5.6 km/h 3.5 mph /  5.6 km/h 40 % 0 in /  0.0 mm
19:55 64 °F /  17.8 °C 48.9 °F /  9.4 °C 30.1 in /  1018.8 hPa Calm   1 mph /  1.6 km/h 58 % 0 in /  0.0 mm
19:56 73.9 °F /  23.3 °C 48.7 °F /  9.3 °C 30.1 in /  1017.8 hPa ESE 6 mph /  9.7 km/h 6 mph /  9.7 km/h 41 % 0 in /  0.0 mm
20:01 73.6 °F /  23.1 °C 48.4 °F /  9.1 °C 30.1 in /  1017.8 hPa ESE 4.6 mph /  7.4 km/h 4.6 mph /  7.4 km/h 41 % 0 in /  0.0 mm
20:05 63.5 °F /  17.5 °C 48.6 °F /  9.2 °C 30.1 in /  1018.8 hPa WSW 2 mph /  3.2 km/h 2 mph /  3.2 km/h 58 % 0 in /  0.0 mm
20:06 73.6 °F /  23.1 °C 48.4 °F /  9.1 °C 30.1 in /  1017.8 hPa SSE 2.9 mph /  4.7 km/h 2.9 mph /  4.7 km/h 41 % 0 in /  0.0 mm
20:11 73.2 °F /  22.9 °C 48.7 °F /  9.3 °C 30.1 in /  1017.8 hPa ESE 4.6 mph /  7.4 km/h 4.6 mph /  7.4 km/h 42 % 0 in /  0.0 mm
20:15 63.1 °F /  17.3 °C 48 °F /  8.9 °C 30.1 in /  1018.8 hPa SW 2 mph /  3.2 km/h 3 mph /  4.8 km/h 58 % 0 in /  0.0 mm
20:16 73.2 °F /  22.9 °C 48.7 °F /  9.3 °C 30.1 in /  1017.8 hPa SSW 2.3 mph /  3.7 km/h 2.3 mph /  3.7 km/h 42 % 0 in /  0.0 mm
20:21 73 °F /  22.8 °C 48.6 °F /  9.2 °C 30.1 in /  1017.8 hPa East 5.8 mph /  9.3 km/h 5.8 mph /  9.3 km/h 42 % 0 in /  0.0 mm
20:25 62.8 °F /  17.1 °C 48.2 °F /  9.0 °C 30.1 in /  1018.8 hPa Calm   2 mph /  3.2 km/h 59 % 0 in /  0.0 mm
20:26 72.7 °F /  22.6 °C 48.9 °F /  9.4 °C 30.1 in /  1017.8 hPa ESE 5.8 mph /  9.3 km/h 5.8 mph /  9.3 km/h 43 % 0 in /  0.0 mm
20:31 72.7 °F /  22.6 °C 49.5 °F /  9.7 °C 30.1 in /  1017.8 hPa ESE 3.5 mph /  5.6 km/h 3.5 mph /  5.6 km/h 44 % 0 in /  0.0 mm
20:35 62.4 °F /  16.9 °C 48.7 °F /  9.3 °C 30.1 in /  1018.8 hPa Calm   2 mph /  3.2 km/h 61 % 0 in /  0.0 mm
20:36 72.3 °F /  22.4 °C 49.3 °F /  9.6 °C 30.1 in /  1017.8 hPa ESE 4.6 mph /  7.4 km/h 4.6 mph /  7.4 km/h 44 % 0 in /  0.0 mm
20:41 72 °F /  22.2 °C 49.5 °F /  9.7 °C 30.1 in /  1017.8 hPa ESE 5.8 mph /  9.3 km/h 5.8 mph /  9.3 km/h 45 % 0 in /  0.0 mm
20:45 62.2 °F /  16.8 °C 48.6 °F /  9.2 °C 30.1 in /  1018.8 hPa Calm     61 % 0 in /  0.0 mm
20:46 71.8 °F /  22.1 °C 49.8 °F /  9.9 °C 30.1 in /  1017.8 hPa East 3.6 mph /  5.8 km/h 3.6 mph /  5.8 km/h 46 % 0 in /  0.0 mm
20:51 71.4 °F /  21.9 °C 49.6 °F /  9.8 °C 30.1 in /  1017.8 hPa SE 4.6 mph /  7.4 km/h 4.6 mph /  7.4 km/h 46 % 0 in /  0.0 mm
20:55 62.2 °F /  16.8 °C 49.1 °F /  9.5 °C 30.1 in /  1018.8 hPa Calm   1 mph /  1.6 km/h 62 % 0 in /  0.0 mm
20:56 71.2 °F /  21.8 °C 50 °F /  10.0 °C 30.1 in /  1017.8 hPa ESE 5.8 mph /  9.3 km/h 5.8 mph /  9.3 km/h 47 % 0 in /  0.0 mm
21:01 71.1 °F /  21.7 °C 49.8 °F /  9.9 °C 30.1 in /  1017.8 hPa ESE 3.5 mph /  5.6 km/h 3.5 mph /  5.6 km/h 47 % 0 in /  0.0 mm
21:05 62.2 °F /  16.8 °C 49.1 °F /  9.5 °C 30.1 in /  1018.8 hPa Calm   1 mph /  1.6 km/h 62 % 0 in /  0.0 mm
21:06 70.7 °F /  21.5 °C 50 °F /  10.0 °C 30 in /  1016.8 hPa ESE 4.6 mph /  7.4 km/h 4.6 mph /  7.4 km/h 48 % 0 in /  0.0 mm
21:11 70.5 °F /  21.4 °C 49.8 °F /  9.9 °C 30 in /  1016.8 hPa ENE 2.3 mph /  3.7 km/h 2.3 mph /  3.7 km/h 48 % 0 in /  0.0 mm
21:15 62.1 °F /  16.7 °C 48.9 °F /  9.4 °C 30.1 in /  1018.8 hPa Calm   2 mph /  3.2 km/h 62 % 0 in /  0.0 mm
21:16 70.3 °F /  21.3 °C 49.6 °F /  9.8 °C 30 in /  1016.8 hPa East 4.6 mph /  7.4 km/h 4.6 mph /  7.4 km/h 48 % 0 in /  0.0 mm
21:21 70 °F /  21.1 °C 49.5 °F /  9.7 °C 30.1 in /  1017.8 hPa SSW 4.6 mph /  7.4 km/h 4.6 mph /  7.4 km/h 48 % 0 in /  0.0 mm
21:25 62.1 °F /  16.7 °C 48.4 °F /  9.1 °C 30.1 in /  1018.8 hPa NE 1 mph /  1.6 km/h   61 % 0 in /  0.0 mm
21:26 70 °F /  21.1 °C 49.5 °F /  9.7 °C 30.1 in /  1017.8 hPa ESE 2 mph /  3.2 km/h 2 mph /  3.2 km/h 48 % 0 in /  0.0 mm
21:31 69.8 °F /  21.0 °C 49.8 °F /  9.9 °C 30.1 in /  1017.8 hPa NE 3.5 mph /  5.6 km/h 3.5 mph /  5.6 km/h 49 % 0 in /  0.0 mm
21:35 62.2 °F /  16.8 °C 48.6 °F /  9.2 °C 30.1 in /  1018.8 hPa Calm     61 % 0 in /  0.0 mm
21:36 69.6 °F /  20.9 °C 50.2 °F /  10.1 °C 30.1 in /  1017.8 hPa ESE 3.5 mph /  5.6 km/h 3.5 mph /  5.6 km/h 50 % 0 in /  0.0 mm
21:41 69.4 °F /  20.8 °C 50.5 °F /  10.3 °C 30.1 in /  1017.8 hPa ESE 3.5 mph /  5.6 km/h 3.5 mph /  5.6 km/h 51 % 0 in /  0.0 mm
21:45 62.6 °F /  17.0 °C 48.6 °F /  9.2 °C 30.1 in /  1018.8 hPa Calm     60 % 0 in /  0.0 mm
21:46 69.3 °F /  20.7 °C 50.4 °F /  10.2 °C 30.1 in /  1017.8 hPa East 1.2 mph /  1.9 km/h   51 % 0 in /  0.0 mm
21:51 69.1 °F /  20.6 °C 50.2 °F /  10.1 °C 30.1 in /  1017.8 hPa ESE 2.9 mph /  4.7 km/h 2.9 mph /  4.7 km/h 51 % 0 in /  0.0 mm
21:55 62.4 °F /  16.9 °C 49.3 °F /  9.6 °C 30.1 in /  1018.8 hPa Calm     62 % 0 in /  0.0 mm
21:56 69.1 °F /  20.6 °C 50.2 °F /  10.1 °C 30.1 in /  1017.8 hPa NE 1.4 mph /  2.3 km/h 1.4 mph /  2.3 km/h 51 % 0 in /  0.0 mm
22:01 68.9 °F /  20.5 °C 50 °F /  10.0 °C 30.1 in /  1017.8 hPa SSW 1.2 mph /  1.9 km/h 1.2 mph /  1.9 km/h 51 % 0 in /  0.0 mm
22:05 61.7 °F /  16.5 °C 48.6 °F /  9.2 °C 30.1 in /  1018.8 hPa Calm   2 mph /  3.2 km/h 62 % 0 in /  0.0 mm
22:06 68.7 °F /  20.4 °C 49.8 °F /  9.9 °C 30.1 in /  1018.8 hPa Calm     51 % 0 in /  0.0 mm
22:11 68.5 °F /  20.3 °C 49.6 °F /  9.8 °C 30.1 in /  1018.8 hPa SW 1.2 mph /  1.9 km/h 1.2 mph /  1.9 km/h 51 % 0 in /  0.0 mm
22:15 61.5 °F /  16.4 °C 47.8 °F /  8.8 °C 30.1 in /  1018.8 hPa SW 1 mph /  1.6 km/h 2 mph /  3.2 km/h 61 % 0 in /  0.0 mm
22:16 68.4 °F /  20.2 °C 50 °F /  10.0 °C 30.1 in /  1018.8 hPa SW 1.6 mph /  2.6 km/h 1.6 mph /  2.6 km/h 52 % 0 in /  0.0 mm
22:21 68.2 °F /  20.1 °C 49.8 °F /  9.9 °C 30.1 in /  1018.8 hPa Calm     52 % 0 in /  0.0 mm
22:25 61.3 °F /  16.3 °C 48.2 °F /  9.0 °C 30.1 in /  1017.8 hPa Calm     62 % 0 in /  0.0 mm
22:26 68 °F /  20.0 °C 49.6 °F /  9.8 °C 30.1 in /  1018.8 hPa Calm     52 % 0 in /  0.0 mm
22:31 67.8 °F /  19.9 °C 49.5 °F /  9.7 °C 30.1 in /  1018.8 hPa Calm     52 % 0 in /  0.0 mm
22:35 61.2 °F /  16.2 °C 48 °F /  8.9 °C 30.1 in /  1017.8 hPa SW 2 mph /  3.2 km/h 2 mph /  3.2 km/h 62 % 0 in /  0.0 mm
22:36 67.8 °F /  19.9 °C 49.5 °F /  9.7 °C 30.1 in /  1018.8 hPa Calm     52 % 0 in /  0.0 mm
22:41 67.8 °F /  19.9 °C 50.2 °F /  10.1 °C 30.1 in /  1018.8 hPa NNE 1.2 mph /  1.9 km/h 1.2 mph /  1.9 km/h 53 % 0 in /  0.0 mm
22:45 61.2 °F /  16.2 °C 48 °F /  8.9 °C 30.1 in /  1017.8 hPa SW 1 mph /  1.6 km/h 2 mph /  3.2 km/h 62 % 0 in /  0.0 mm
22:46 67.6 °F /  19.8 °C 49.8 °F /  9.9 °C 30.1 in /  1018.8 hPa Calm     53 % 0 in /  0.0 mm
22:51 67.5 °F /  19.7 °C 49.6 °F /  9.8 °C 30.1 in /  1019.9 hPa Calm     53 % 0 in /  0.0 mm
22:55 61.2 °F /  16.2 °C 48 °F /  8.9 °C 30.1 in /  1017.8 hPa WSW 1 mph /  1.6 km/h 2 mph /  3.2 km/h 62 % 0 in /  0.0 mm
22:56 67.5 °F /  19.7 °C 49.6 °F /  9.8 °C 30.1 in /  1019.9 hPa NW 1.2 mph /  1.9 km/h 1.2 mph /  1.9 km/h 53 % 0 in /  0.0 mm
23:01 67.3 °F /  19.6 °C 50.2 °F /  10.1 °C 30.1 in /  1019.9 hPa NNW 1.2 mph /  1.9 km/h   54 % 0 in /  0.0 mm
23:06 67.1 °F /  19.5 °C 49.8 °F /  9.9 °C 30.1 in /  1019.9 hPa Calm     54 % 0 in /  0.0 mm
23:11 66.9 °F /  19.4 °C 50.2 °F /  10.1 °C 30.1 in /  1019.9 hPa NNW 1.2 mph /  1.9 km/h   55 % 0 in /  0.0 mm
23:15 61.2 °F /  16.2 °C 48.6 °F /  9.2 °C 30.1 in /  1017.8 hPa Calm     63 % 0 in /  0.0 mm
23:16 66.9 °F /  19.4 °C 50.2 °F /  10.1 °C 30.1 in /  1019.9 hPa Calm     55 % 0 in /  0.0 mm
23:21 66.7 °F /  19.3 °C 50.2 °F /  10.1 °C 30.1 in /  1019.9 hPa NNE 2 mph /  3.2 km/h 2 mph /  3.2 km/h 55 % 0 in /  0.0 mm
23:25 61.2 °F /  16.2 °C 48.6 °F /  9.2 °C 30.1 in /  1017.8 hPa Calm     63 % 0 in /  0.0 mm
23:26 66.7 °F /  19.3 °C 50.2 °F /  10.1 °C 30.1 in /  1019.9 hPa NNE 1.2 mph /  1.9 km/h   55 % 0 in /  0.0 mm
23:31 66.6 °F /  19.2 °C 49.8 °F /  9.9 °C 30.1 in /  1019.9 hPa Calm     55 % 0 in /  0.0 mm
23:35 61.2 °F /  16.2 °C 48.6 °F /  9.2 °C 30 in /  1016.8 hPa Calm     63 % 0 in /  0.0 mm
23:36 66.6 °F /  19.2 °C 49.8 °F /  9.9 °C 30.1 in /  1019.9 hPa West 1.2 mph /  1.9 km/h 1.2 mph /  1.9 km/h 55 % 0 in /  0.0 mm
23:41 66.4 °F /  19.1 °C 49.6 °F /  9.8 °C 30.1 in /  1019.9 hPa Calm     55 % 0 in /  0.0 mm
23:45 61.5 °F /  16.4 °C 48.7 °F /  9.3 °C 30 in /  1016.8 hPa SW 1 mph /  1.6 km/h 1 mph /  1.6 km/h 63 % 0 in /  0.0 mm
23:46 66.2 °F /  19.0 °C 50 °F /  10.0 °C 30.1 in /  1019.9 hPa Calm     56 % 0 in /  0.0 mm
23:51 66.2 °F /  19.0 °C 50 °F /  10.0 °C 30.1 in /  1019.9 hPa Calm     56 % 0 in /  0.0 mm
23:55 61.5 °F /  16.4 °C 48.7 °F /  9.3 °C 30.1 in /  1017.8 hPa Calm     63 % 0 in /  0.0 mm
23:56 66.2 °F /  19.0 °C 50 °F /  10.0 °C 30.1 in /  1019.9 hPa Calm     56 % 0 in /  0.0 mm
Meteo Sesrovires
Elogis d' Weather Underground - 3.75 mb

Guio original per  Jim McMurry - jmcmurry@mwt.net Adaptat per a la plantilla per  Wim van der Kuil - Leuven-Template.eu

Trobareu la nostra informacio del temps tambe a:

Weather Underground

AWEKAS